sensor_id;sensor_type;location;lat;lon;timestamp;pressure;altitude;pressure_sealevel;temperature;humidity
32452;BME280;45528;52.102;5.242;2023-04-24T00:00:08;99455.0;;;14.4;70.92
32452;BME280;45528;52.102;5.242;2023-04-24T00:03:21;99449.0;;;14.49;70.91
32452;BME280;45528;52.102;5.242;2023-04-24T00:04:59;99445.0;;;14.63;70.05
32452;BME280;45528;52.102;5.242;2023-04-24T00:06:35;99444.0;;;14.78;69.28
32452;BME280;45528;52.102;5.242;2023-04-24T00:09:48;99456.0;;;14.71;69.41
32452;BME280;45528;52.102;5.242;2023-04-24T00:11:25;99455.0;;;14.79;69.33
32452;BME280;45528;52.102;5.242;2023-04-24T00:13:02;99463.0;;;14.76;69.66
32452;BME280;45528;52.102;5.242;2023-04-24T00:16:14;99455.0;;;14.71;69.81
32452;BME280;45528;52.102;5.242;2023-04-24T00:17:50;99464.0;;;14.76;70.08
32452;BME280;45528;52.102;5.242;2023-04-24T00:19:26;99455.0;;;14.7;70.11
32452;BME280;45528;52.102;5.242;2023-04-24T00:21:04;99458.0;;;14.7;69.99
32452;BME280;45528;52.102;5.242;2023-04-24T00:24:17;99462.0;;;14.97;69.11
32452;BME280;45528;52.102;5.242;2023-04-24T00:25:54;99460.0;;;15.07;68.88
32452;BME280;45528;52.102;5.242;2023-04-24T00:27:30;99461.0;;;15.11;68.33
32452;BME280;45528;52.102;5.242;2023-04-24T00:30:45;99474.0;;;15.33;68.0
32452;BME280;45528;52.102;5.242;2023-04-24T00:32:21;99466.0;;;15.08;68.49
32452;BME280;45528;52.102;5.242;2023-04-24T00:33:57;99471.0;;;15.1;68.45
32452;BME280;45528;52.102;5.242;2023-04-24T00:37:10;99468.0;;;14.9;69.12
32452;BME280;45528;52.102;5.242;2023-04-24T00:38:46;99468.0;;;14.89;69.22
32452;BME280;45528;52.102;5.242;2023-04-24T00:40:22;99471.0;;;14.77;69.52
32452;BME280;45528;52.102;5.242;2023-04-24T00:41:59;99472.0;;;14.89;69.52
32452;BME280;45528;52.102;5.242;2023-04-24T00:45:12;99473.0;;;15.18;68.73
32452;BME280;45528;52.102;5.242;2023-04-24T00:46:49;99474.0;;;15.34;68.19
32452;BME280;45528;52.102;5.242;2023-04-24T00:48:27;99474.0;;;15.22;68.47
32452;BME280;45528;52.102;5.242;2023-04-24T00:51:42;99477.0;;;15.18;68.58
32452;BME280;45528;52.102;5.242;2023-04-24T00:53:19;99475.0;;;15.19;68.33
32452;BME280;45528;52.102;5.242;2023-04-24T00:54:56;99475.0;;;14.81;69.47
32452;BME280;45528;52.102;5.242;2023-04-24T00:58:10;99477.0;;;15.25;67.83
32452;BME280;45528;52.102;5.242;2023-04-24T00:59:47;99476.0;;;15.02;68.47
32452;BME280;45528;52.102;5.242;2023-04-24T01:01:23;99487.0;;;15.5;67.58
32452;BME280;45528;52.102;5.242;2023-04-24T01:03:01;99487.0;;;15.49;67.34
32452;BME280;45528;52.102;5.242;2023-04-24T01:06:19;99484.0;;;15.49;67.19
32452;BME280;45528;52.102;5.242;2023-04-24T01:07:56;99489.0;;;15.36;67.83
32452;BME280;45528;52.102;5.242;2023-04-24T01:09:33;99489.0;;;15.54;67.41
32452;BME280;45528;52.102;5.242;2023-04-24T01:12:47;99487.0;;;15.43;67.8
32452;BME280;45528;52.102;5.242;2023-04-24T01:14:23;99484.0;;;15.0;68.61
32452;BME280;45528;52.102;5.242;2023-04-24T01:16:00;99490.0;;;15.26;68.19
32452;BME280;45528;52.102;5.242;2023-04-24T01:17:39;99492.0;;;15.57;67.28
32452;BME280;45528;52.102;5.242;2023-04-24T01:20:59;99492.0;;;15.55;67.42
32452;BME280;45528;52.102;5.242;2023-04-24T01:22:39;99495.0;;;15.78;66.83
32452;BME280;45528;52.102;5.242;2023-04-24T01:24:16;99493.0;;;15.52;67.55
32452;BME280;45528;52.102;5.242;2023-04-24T01:27:31;99500.0;;;15.49;67.83
32452;BME280;45528;52.102;5.242;2023-04-24T01:29:08;99499.0;;;15.58;67.47
32452;BME280;45528;52.102;5.242;2023-04-24T01:30:45;99496.0;;;15.67;67.16
32452;BME280;45528;52.102;5.242;2023-04-24T01:32:22;99495.0;;;15.6;67.3
32452;BME280;45528;52.102;5.242;2023-04-24T01:35:36;99499.0;;;15.81;66.99
32452;BME280;45528;52.102;5.242;2023-04-24T01:37:13;99505.0;;;15.7;67.3
32452;BME280;45528;52.102;5.242;2023-04-24T01:38:50;99503.0;;;15.89;66.44
32452;BME280;45528;52.102;5.242;2023-04-24T01:42:05;99498.0;;;15.84;66.8
32452;BME280;45528;52.102;5.242;2023-04-24T01:43:41;99499.0;;;15.82;66.66
32452;BME280;45528;52.102;5.242;2023-04-24T01:45:18;99505.0;;;15.87;66.52
32452;BME280;45528;52.102;5.242;2023-04-24T01:46:55;99499.0;;;15.84;66.41
32452;BME280;45528;52.102;5.242;2023-04-24T01:50:10;99501.0;;;15.77;66.72
32452;BME280;45528;52.102;5.242;2023-04-24T01:51:47;99505.0;;;15.65;67.16
32452;BME280;45528;52.102;5.242;2023-04-24T01:53:24;99499.0;;;15.8;66.55
32452;BME280;45528;52.102;5.242;2023-04-24T01:56:41;99503.0;;;15.94;66.14
32452;BME280;45528;52.102;5.242;2023-04-24T01:58:19;99503.0;;;15.96;65.98
32452;BME280;45528;52.102;5.242;2023-04-24T01:59:56;99500.0;;;15.43;67.27
32452;BME280;45528;52.102;5.242;2023-04-24T02:01:34;99503.0;;;15.72;66.63
32452;BME280;45528;52.102;5.242;2023-04-24T02:04:47;99500.0;;;15.56;67.17
32452;BME280;45528;52.102;5.242;2023-04-24T02:06:23;99502.0;;;15.7;66.52
32452;BME280;45528;52.102;5.242;2023-04-24T02:07:59;99503.0;;;15.65;66.72
32452;BME280;45528;52.102;5.242;2023-04-24T02:11:13;99503.0;;;15.83;66.05
32452;BME280;45528;52.102;5.242;2023-04-24T02:12:49;99505.0;;;15.63;66.31
32452;BME280;45528;52.102;5.242;2023-04-24T02:14:26;99503.0;;;15.71;66.11
32452;BME280;45528;52.102;5.242;2023-04-24T02:17:39;99505.0;;;15.81;65.72
32452;BME280;45528;52.102;5.242;2023-04-24T02:19:15;99505.0;;;15.89;65.48
32452;BME280;45528;52.102;5.242;2023-04-24T02:20:52;99502.0;;;15.74;65.81
32452;BME280;45528;52.102;5.242;2023-04-24T02:22:29;99502.0;;;15.8;65.86
32452;BME280;45528;52.102;5.242;2023-04-24T02:25:42;99502.0;;;15.88;65.52
32452;BME280;45528;52.102;5.242;2023-04-24T02:27:18;99502.0;;;15.77;65.5
32452;BME280;45528;52.102;5.242;2023-04-24T02:28:55;99506.0;;;15.7;65.97
32452;BME280;45528;52.102;5.242;2023-04-24T02:32:09;99506.0;;;15.63;66.3
32452;BME280;45528;52.102;5.242;2023-04-24T02:33:45;99508.0;;;15.6;66.22
32452;BME280;45528;52.102;5.242;2023-04-24T02:35:21;99502.0;;;15.87;65.83
32452;BME280;45528;52.102;5.242;2023-04-24T02:38:35;99500.0;;;15.87;65.63
32452;BME280;45528;52.102;5.242;2023-04-24T02:40:12;99503.0;;;15.78;65.97
32452;BME280;45528;52.102;5.242;2023-04-24T02:41:48;99502.0;;;15.71;66.19
32452;BME280;45528;52.102;5.242;2023-04-24T02:43:25;99501.0;;;15.85;65.8
32452;BME280;45528;52.102;5.242;2023-04-24T02:46:39;99497.0;;;15.87;65.69
32452;BME280;45528;52.102;5.242;2023-04-24T02:48:16;99499.0;;;15.67;66.44
32452;BME280;45528;52.102;5.242;2023-04-24T02:49:52;99498.0;;;15.74;65.98
32452;BME280;45528;52.102;5.242;2023-04-24T02:53:06;99502.0;;;15.82;65.91
32452;BME280;45528;52.102;5.242;2023-04-24T02:54:43;99505.0;;;15.87;65.72
32452;BME280;45528;52.102;5.242;2023-04-24T02:56:19;99501.0;;;15.98;65.61
32452;BME280;45528;52.102;5.242;2023-04-24T02:57:56;99503.0;;;15.95;65.48
32452;BME280;45528;52.102;5.242;2023-04-24T03:01:08;99498.0;;;15.81;65.91
32452;BME280;45528;52.102;5.242;2023-04-24T03:02:46;99496.0;;;15.78;65.97
32452;BME280;45528;52.102;5.242;2023-04-24T03:04:23;99499.0;;;15.67;66.23
32452;BME280;45528;52.102;5.242;2023-04-24T03:07:35;99501.0;;;15.87;65.83
32452;BME280;45528;52.102;5.242;2023-04-24T03:09:12;99501.0;;;15.62;66.44
32452;BME280;45528;52.102;5.242;2023-04-24T03:10:49;99505.0;;;15.98;65.55
32452;BME280;45528;52.102;5.242;2023-04-24T03:14:02;99501.0;;;15.84;66.05
32452;BME280;45528;52.102;5.242;2023-04-24T03:15:39;99499.0;;;15.74;66.3
32452;BME280;45528;52.102;5.242;2023-04-24T03:17:17;99499.0;;;15.72;66.36
32452;BME280;45528;52.102;5.242;2023-04-24T03:18:54;99496.0;;;15.9;66.02
32452;BME280;45528;52.102;5.242;2023-04-24T03:22:07;99498.0;;;15.82;65.94
32452;BME280;45528;52.102;5.242;2023-04-24T03:23:44;99496.0;;;15.72;66.24
32452;BME280;45528;52.102;5.242;2023-04-24T03:25:20;99500.0;;;15.68;66.34
32452;BME280;45528;52.102;5.242;2023-04-24T03:28:35;99500.0;;;15.85;65.64
32452;BME280;45528;52.102;5.242;2023-04-24T03:30:12;99499.0;;;15.82;65.78
32452;BME280;45528;52.102;5.242;2023-04-24T03:31:49;99496.0;;;15.88;65.34
32452;BME280;45528;52.102;5.242;2023-04-24T03:35:02;99492.0;;;15.79;65.47
32452;BME280;45528;52.102;5.242;2023-04-24T03:36:39;99494.0;;;16.09;64.87
32452;BME280;45528;52.102;5.242;2023-04-24T03:38:15;99494.0;;;16.02;65.23
32452;BME280;45528;52.102;5.242;2023-04-24T03:39:52;99497.0;;;16.02;65.24
32452;BME280;45528;52.102;5.242;2023-04-24T03:43:05;99495.0;;;15.55;65.8
32452;BME280;45528;52.102;5.242;2023-04-24T03:44:41;99493.0;;;15.63;66.22
32452;BME280;45528;52.102;5.242;2023-04-24T03:46:18;99492.0;;;15.83;65.27
32452;BME280;45528;52.102;5.242;2023-04-24T03:49:32;99490.0;;;15.67;65.69
32452;BME280;45528;52.102;5.242;2023-04-24T03:51:08;99490.0;;;15.82;65.3
32452;BME280;45528;52.102;5.242;2023-04-24T03:52:46;99491.0;;;15.67;65.72
32452;BME280;45528;52.102;5.242;2023-04-24T03:55:59;99491.0;;;15.67;65.78
32452;BME280;45528;52.102;5.242;2023-04-24T03:57:35;99500.0;;;15.81;65.41
32452;BME280;45528;52.102;5.242;2023-04-24T03:59:12;99500.0;;;15.78;65.58
32452;BME280;45528;52.102;5.242;2023-04-24T04:00:48;99500.0;;;15.69;65.66
32452;BME280;45528;52.102;5.242;2023-04-24T04:04:02;99502.0;;;15.64;66.05
32452;BME280;45528;52.102;5.242;2023-04-24T04:05:38;99505.0;;;15.63;65.97
32452;BME280;45528;52.102;5.242;2023-04-24T04:07:15;99505.0;;;15.66;66.05
32452;BME280;45528;52.102;5.242;2023-04-24T04:10:29;99505.0;;;15.72;65.97
32452;BME280;45528;52.102;5.242;2023-04-24T04:12:06;99506.0;;;15.81;65.56
32452;BME280;45528;52.102;5.242;2023-04-24T04:13:43;99509.0;;;15.78;65.3
32452;BME280;45528;52.102;5.242;2023-04-24T04:15:20;99512.0;;;15.78;65.52
32452;BME280;45528;52.102;5.242;2023-04-24T04:18:34;99512.0;;;15.71;65.55
32452;BME280;45528;52.102;5.242;2023-04-24T04:20:11;99513.0;;;15.68;65.78
32452;BME280;45528;52.102;5.242;2023-04-24T04:21:47;99515.0;;;15.7;65.73
32452;BME280;45528;52.102;5.242;2023-04-24T04:24:59;99518.0;;;15.62;66.03
32452;BME280;45528;52.102;5.242;2023-04-24T04:26:37;99519.0;;;15.6;66.2
32452;BME280;45528;52.102;5.242;2023-04-24T04:28:14;99521.0;;;15.63;66.22
32452;BME280;45528;52.102;5.242;2023-04-24T04:31:27;99524.0;;;15.65;66.08
32452;BME280;45528;52.102;5.242;2023-04-24T04:33:03;99520.0;;;15.58;66.34
32452;BME280;45528;52.102;5.242;2023-04-24T04:34:39;99525.0;;;15.62;66.35
32452;BME280;45528;52.102;5.242;2023-04-24T04:37:51;99528.0;;;15.67;66.11
32452;BME280;45528;52.102;5.242;2023-04-24T04:39:27;99532.0;;;15.64;66.06
32452;BME280;45528;52.102;5.242;2023-04-24T04:41:04;99533.0;;;15.62;66.33
32452;BME280;45528;52.102;5.242;2023-04-24T04:42:40;99537.0;;;15.53;66.55
32452;BME280;45528;52.102;5.242;2023-04-24T04:45:52;99542.0;;;15.7;66.08
32452;BME280;45528;52.102;5.242;2023-04-24T04:47:28;99544.0;;;15.62;66.16
32452;BME280;45528;52.102;5.242;2023-04-24T04:49:04;99547.0;;;15.54;66.38
32452;BME280;45528;52.102;5.242;2023-04-24T04:52:16;99548.0;;;15.55;66.62
32452;BME280;45528;52.102;5.242;2023-04-24T04:53:53;99543.0;;;15.53;66.8
32452;BME280;45528;52.102;5.242;2023-04-24T04:55:30;99550.0;;;15.5;66.97
32452;BME280;45528;52.102;5.242;2023-04-24T04:58:42;99551.0;;;15.57;67.05
32452;BME280;45528;52.102;5.242;2023-04-24T05:00:18;99556.0;;;15.82;66.22
32452;BME280;45528;52.102;5.242;2023-04-24T05:01:55;99558.0;;;15.77;66.25
32452;BME280;45528;52.102;5.242;2023-04-24T05:03:31;99566.0;;;15.67;66.47
32452;BME280;45528;52.102;5.242;2023-04-24T05:06:45;99569.0;;;15.7;66.58
32452;BME280;45528;52.102;5.242;2023-04-24T05:08:21;99570.0;;;15.83;66.16
32452;BME280;45528;52.102;5.242;2023-04-24T05:09:57;99577.0;;;15.8;66.02
32452;BME280;45528;52.102;5.242;2023-04-24T05:13:09;99577.0;;;15.72;66.17
32452;BME280;45528;52.102;5.242;2023-04-24T05:14:45;99580.0;;;15.79;65.95
32452;BME280;45528;52.102;5.242;2023-04-24T05:16:21;99588.0;;;15.68;66.0
32452;BME280;45528;52.102;5.242;2023-04-24T05:19:34;99594.0;;;15.83;65.74
32452;BME280;45528;52.102;5.242;2023-04-24T05:21:10;99601.0;;;15.76;65.85
32452;BME280;45528;52.102;5.242;2023-04-24T05:22:47;99605.0;;;15.73;66.17
32452;BME280;45528;52.102;5.242;2023-04-24T05:24:23;99603.0;;;15.81;65.8
32452;BME280;45528;52.102;5.242;2023-04-24T05:27:35;99613.0;;;15.74;65.83
32452;BME280;45528;52.102;5.242;2023-04-24T05:29:12;99617.0;;;15.63;65.95
32452;BME280;45528;52.102;5.242;2023-04-24T05:30:48;99623.0;;;15.51;66.06
32452;BME280;45528;52.102;5.242;2023-04-24T05:34:00;99626.0;;;15.58;66.17
32452;BME280;45528;52.102;5.242;2023-04-24T05:35:37;99631.0;;;15.2;66.3
32452;BME280;45528;52.102;5.242;2023-04-24T05:37:13;99634.0;;;15.31;66.3
32452;BME280;45528;52.102;5.242;2023-04-24T05:40:25;99641.0;;;15.31;66.2
32452;BME280;45528;52.102;5.242;2023-04-24T05:42:02;99650.0;;;15.3;66.2
32452;BME280;45528;52.102;5.242;2023-04-24T05:43:38;99665.0;;;15.35;66.17
32452;BME280;45528;52.102;5.242;2023-04-24T05:46:51;99670.0;;;14.95;66.94
32452;BME280;45528;52.102;5.242;2023-04-24T05:48:27;99661.0;;;15.2;66.49
32452;BME280;45528;52.102;5.242;2023-04-24T05:50:04;99666.0;;;15.12;66.69
32452;BME280;45528;52.102;5.242;2023-04-24T05:51:41;99661.0;;;15.22;66.38
32452;BME280;45528;52.102;5.242;2023-04-24T05:54:53;99666.0;;;15.23;66.52
32452;BME280;45528;52.102;5.242;2023-04-24T05:56:29;99667.0;;;15.25;65.97
32452;BME280;45528;52.102;5.242;2023-04-24T05:58:06;99673.0;;;15.25;66.19
32452;BME280;45528;52.102;5.242;2023-04-24T06:01:19;99676.0;;;15.35;66.08
32452;BME280;45528;52.102;5.242;2023-04-24T06:02:55;99690.0;;;15.15;66.33
32452;BME280;45528;52.102;5.242;2023-04-24T06:04:31;99682.0;;;15.32;66.08
32452;BME280;45528;52.102;5.242;2023-04-24T06:07:44;99689.0;;;15.33;66.08
32452;BME280;45528;52.102;5.242;2023-04-24T06:09:20;99694.0;;;15.27;66.12
32452;BME280;45528;52.102;5.242;2023-04-24T06:10:56;99695.0;;;15.2;66.67
32452;BME280;45528;52.102;5.242;2023-04-24T06:12:32;99699.0;;;15.09;66.7
32452;BME280;45528;52.102;5.242;2023-04-24T06:15:45;99701.0;;;15.21;66.37
32452;BME280;45528;52.102;5.242;2023-04-24T06:17:21;99712.0;;;15.12;66.58
32452;BME280;45528;52.102;5.242;2023-04-24T06:18:57;99717.0;;;14.83;67.09
32452;BME280;45528;52.102;5.242;2023-04-24T06:22:09;99717.0;;;14.89;67.6
32452;BME280;45528;52.102;5.242;2023-04-24T06:23:45;99721.0;;;14.78;67.83
32452;BME280;45528;52.102;5.242;2023-04-24T06:25:22;99725.0;;;15.0;67.28
32452;BME280;45528;52.102;5.242;2023-04-24T06:28:37;99735.0;;;14.66;68.58
32452;BME280;45528;52.102;5.242;2023-04-24T06:30:13;99738.0;;;14.9;67.95
32452;BME280;45528;52.102;5.242;2023-04-24T06:31:50;99740.0;;;14.5;69.55
32452;BME280;45528;52.102;5.242;2023-04-24T06:33:26;99751.0;;;14.57;68.86
32452;BME280;45528;52.102;5.242;2023-04-24T06:36:39;99756.0;;;14.17;70.05
32452;BME280;45528;52.102;5.242;2023-04-24T06:38:16;99760.0;;;14.17;70.37
32452;BME280;45528;52.102;5.242;2023-04-24T06:39:52;99761.0;;;14.1;70.27
32452;BME280;45528;52.102;5.242;2023-04-24T06:43:04;99777.0;;;14.21;70.24
32452;BME280;45528;52.102;5.242;2023-04-24T06:44:40;99773.0;;;14.24;69.69
32452;BME280;45528;52.102;5.242;2023-04-24T06:46:16;99782.0;;;14.33;69.47
32452;BME280;45528;52.102;5.242;2023-04-24T06:49:28;99792.0;;;14.43;69.44
32452;BME280;45528;52.102;5.242;2023-04-24T06:51:05;99797.0;;;14.45;69.36
32452;BME280;45528;52.102;5.242;2023-04-24T06:52:41;99797.0;;;14.15;70.52
32452;BME280;45528;52.102;5.242;2023-04-24T06:55:53;99807.0;;;13.85;71.34
32452;BME280;45528;52.102;5.242;2023-04-24T06:57:29;99813.0;;;14.1;69.78
32452;BME280;45528;52.102;5.242;2023-04-24T06:59:06;99819.0;;;14.05;69.98
32452;BME280;45528;52.102;5.242;2023-04-24T07:00:42;99826.0;;;14.0;69.73
32452;BME280;45528;52.102;5.242;2023-04-24T07:03:55;99833.0;;;13.85;70.22
32452;BME280;45528;52.102;5.242;2023-04-24T07:05:31;99837.0;;;14.03;69.14
32452;BME280;45528;52.102;5.242;2023-04-24T07:07:07;99843.0;;;13.95;69.48
32452;BME280;45528;52.102;5.242;2023-04-24T07:10:19;99847.0;;;13.83;69.69
32452;BME280;45528;52.102;5.242;2023-04-24T07:11:55;99848.0;;;13.91;69.61
32452;BME280;45528;52.102;5.242;2023-04-24T07:13:31;99855.0;;;14.26;68.73
32452;BME280;45528;52.102;5.242;2023-04-24T07:16:45;99862.0;;;14.34;68.41
32452;BME280;45528;52.102;5.242;2023-04-24T07:18:22;99871.0;;;14.18;68.72
32452;BME280;45528;52.102;5.242;2023-04-24T07:19:58;99875.0;;;13.81;69.83
32452;BME280;45528;52.102;5.242;2023-04-24T07:21:34;99878.0;;;14.05;69.33
32452;BME280;45528;52.102;5.242;2023-04-24T07:24:46;99884.0;;;14.01;69.05
32452;BME280;45528;52.102;5.242;2023-04-24T07:26:22;99886.0;;;14.02;69.2
32452;BME280;45528;52.102;5.242;2023-04-24T07:28:00;99891.0;;;13.87;69.16
32452;BME280;45528;52.102;5.242;2023-04-24T07:31:12;99891.0;;;13.82;69.61
32452;BME280;45528;52.102;5.242;2023-04-24T07:32:49;99898.0;;;14.0;69.06
32452;BME280;45528;52.102;5.242;2023-04-24T07:34:25;99900.0;;;14.02;69.36
32452;BME280;45528;52.102;5.242;2023-04-24T07:37:37;99903.0;;;14.36;68.47
32452;BME280;45528;52.102;5.242;2023-04-24T07:39:15;99906.0;;;14.19;69.17
32452;BME280;45528;52.102;5.242;2023-04-24T07:40:51;99911.0;;;14.65;67.89
32452;BME280;45528;52.102;5.242;2023-04-24T07:42:28;99922.0;;;14.48;68.52
32452;BME280;45528;52.102;5.242;2023-04-24T07:45:40;99925.0;;;14.48;68.69
32452;BME280;45528;52.102;5.242;2023-04-24T07:47:16;99930.0;;;14.55;68.14
32452;BME280;45528;52.102;5.242;2023-04-24T07:48:52;99931.0;;;14.08;69.41
32452;BME280;45528;52.102;5.242;2023-04-24T07:52:05;99935.0;;;14.13;69.47
32452;BME280;45528;52.102;5.242;2023-04-24T07:53:43;99941.0;;;14.16;69.11
32452;BME280;45528;52.102;5.242;2023-04-24T07:55:19;99941.0;;;14.19;69.17
32452;BME280;45528;52.102;5.242;2023-04-24T07:58:32;99949.0;;;14.22;69.22
32452;BME280;45528;52.102;5.242;2023-04-24T08:00:09;99943.0;;;14.13;68.89
32452;BME280;45528;52.102;5.242;2023-04-24T08:01:45;99955.0;;;14.18;69.3
32452;BME280;45528;52.102;5.242;2023-04-24T08:04:58;99964.0;;;14.1;69.27
32452;BME280;45528;52.102;5.242;2023-04-24T08:06:34;99965.0;;;14.17;69.33
32452;BME280;45528;52.102;5.242;2023-04-24T08:08:10;99970.0;;;14.26;68.89
32452;BME280;45528;52.102;5.242;2023-04-24T08:09:46;99975.0;;;14.0;69.42
32452;BME280;45528;52.102;5.242;2023-04-24T08:12:59;99982.0;;;14.11;68.98
32452;BME280;45528;52.102;5.242;2023-04-24T08:14:35;99980.0;;;13.92;69.37
32452;BME280;45528;52.102;5.242;2023-04-24T08:16:12;99991.0;;;13.74;69.88
32452;BME280;45528;52.102;5.242;2023-04-24T08:19:24;99995.0;;;14.01;69.16
32452;BME280;45528;52.102;5.242;2023-04-24T08:21:00;100005.0;;;14.02;68.99
32452;BME280;45528;52.102;5.242;2023-04-24T08:22:36;100008.0;;;13.85;69.02
32452;BME280;45528;52.102;5.242;2023-04-24T08:25:48;100020.0;;;13.44;69.2
32452;BME280;45528;52.102;5.242;2023-04-24T08:27:25;100025.0;;;13.75;69.55
32452;BME280;45528;52.102;5.242;2023-04-24T08:29:02;100025.0;;;14.07;68.49
32452;BME280;45528;52.102;5.242;2023-04-24T08:30:39;100039.0;;;14.45;67.87
32452;BME280;45528;52.102;5.242;2023-04-24T08:33:51;100033.0;;;14.07;68.38
32452;BME280;45528;52.102;5.242;2023-04-24T08:35:27;100051.0;;;13.98;68.05
32452;BME280;45528;52.102;5.242;2023-04-24T08:37:03;100049.0;;;13.75;67.53
32452;BME280;45528;52.102;5.242;2023-04-24T08:40:16;100049.0;;;14.15;67.47
32452;BME280;45528;52.102;5.242;2023-04-24T08:41:52;100056.0;;;14.01;66.89
32452;BME280;45528;52.102;5.242;2023-04-24T08:43:30;100057.0;;;14.0;65.85
32452;BME280;45528;52.102;5.242;2023-04-24T08:46:48;100059.0;;;14.09;65.73
32452;BME280;45528;52.102;5.242;2023-04-24T08:48:25;100065.0;;;14.35;64.55
32452;BME280;45528;52.102;5.242;2023-04-24T08:50:02;100070.0;;;14.2;64.22
32452;BME280;45528;52.102;5.242;2023-04-24T08:51:39;100077.0;;;13.88;63.45
32452;BME280;45528;52.102;5.242;2023-04-24T08:54:54;100077.0;;;13.79;63.56
32452;BME280;45528;52.102;5.242;2023-04-24T08:56:33;100074.0;;;14.03;64.55
32452;BME280;45528;52.102;5.242;2023-04-24T08:58:10;100080.0;;;14.14;63.61
32452;BME280;45528;52.102;5.242;2023-04-24T09:01:24;100090.0;;;14.3;63.5
32452;BME280;45528;52.102;5.242;2023-04-24T09:03:02;100086.0;;;14.7;63.25
32452;BME280;45528;52.102;5.242;2023-04-24T09:04:40;100097.0;;;14.34;62.27
32452;BME280;45528;52.102;5.242;2023-04-24T09:06:19;100097.0;;;14.66;61.76
32452;BME280;45528;52.102;5.242;2023-04-24T09:09:38;100100.0;;;14.3;61.81
32452;BME280;45528;52.102;5.242;2023-04-24T09:11:15;100094.0;;;14.56;62.1
32452;BME280;45528;52.102;5.242;2023-04-24T09:12:52;100102.0;;;14.52;62.13
32452;BME280;45528;52.102;5.242;2023-04-24T09:16:06;100106.0;;;14.78;62.7
32452;BME280;45528;52.102;5.242;2023-04-24T09:17:43;100107.0;;;14.77;62.63
32452;BME280;45528;52.102;5.242;2023-04-24T09:19:19;100112.0;;;14.98;61.38
32452;BME280;45528;52.102;5.242;2023-04-24T09:20:57;100121.0;;;15.09;60.26
32452;BME280;45528;52.102;5.242;2023-04-24T09:24:14;100114.0;;;14.81;61.18
32452;BME280;45528;52.102;5.242;2023-04-24T09:25:54;100120.0;;;15.1;59.88
32452;BME280;45528;52.102;5.242;2023-04-24T09:27:31;100121.0;;;15.04;60.32
32452;BME280;45528;52.102;5.242;2023-04-24T09:31:02;100124.0;;;15.06;59.41
32452;BME280;45528;52.102;5.242;2023-04-24T09:32:39;100121.0;;;14.86;60.17
32452;BME280;45528;52.102;5.242;2023-04-24T09:34:21;100132.0;;;15.11;60.08
32452;BME280;45528;52.102;5.242;2023-04-24T09:35:58;100138.0;;;14.67;58.87
32452;BME280;45528;52.102;5.242;2023-04-24T09:37:36;100142.0;;;14.92;60.08
32452;BME280;45528;52.102;5.242;2023-04-24T09:40:51;100139.0;;;14.26;58.39
32452;BME280;45528;52.102;5.242;2023-04-24T09:42:29;100153.0;;;13.87;59.65
32452;BME280;45528;52.102;5.242;2023-04-24T09:44:12;100150.0;;;14.72;58.65
32452;BME280;45528;52.102;5.242;2023-04-24T09:47:25;100155.0;;;14.89;57.99
32452;BME280;45528;52.102;5.242;2023-04-24T09:49:08;100162.0;;;14.64;57.56
32452;BME280;45528;52.102;5.242;2023-04-24T09:50:45;100160.0;;;14.58;57.65
32452;BME280;45528;52.102;5.242;2023-04-24T09:52:22;100164.0;;;14.44;56.63
32452;BME280;45528;52.102;5.242;2023-04-24T09:55:38;100165.0;;;14.88;57.02
32452;BME280;45528;52.102;5.242;2023-04-24T09:57:15;100161.0;;;14.94;55.92
32452;BME280;45528;52.102;5.242;2023-04-24T09:58:51;100174.0;;;14.77;55.27
32452;BME280;45528;52.102;5.242;2023-04-24T10:02:16;100174.0;;;15.14;55.74
32452;BME280;45528;52.102;5.242;2023-04-24T10:03:53;100175.0;;;15.46;55.55
32452;BME280;45528;52.102;5.242;2023-04-24T10:05:30;100180.0;;;15.3;55.32
32452;BME280;45528;52.102;5.242;2023-04-24T10:07:08;100180.0;;;15.11;56.11
32452;BME280;45528;52.102;5.242;2023-04-24T10:10:21;100181.0;;;15.15;56.64
32452;BME280;45528;52.102;5.242;2023-04-24T10:11:58;100192.0;;;15.11;55.78
32452;BME280;45528;52.102;5.242;2023-04-24T10:13:35;100205.0;;;14.96;55.88
32452;BME280;45528;52.102;5.242;2023-04-24T10:15:11;100205.0;;;15.05;57.09
32452;BME280;45528;52.102;5.242;2023-04-24T10:18:29;100210.0;;;14.65;58.52
32452;BME280;45528;52.102;5.242;2023-04-24T10:20:06;100202.0;;;14.68;58.3
32452;BME280;45528;52.102;5.242;2023-04-24T10:21:43;100199.0;;;14.74;57.53
32452;BME280;45528;52.102;5.242;2023-04-24T10:24:58;100205.0;;;14.95;59.1
32452;BME280;45528;52.102;5.242;2023-04-24T10:26:35;100206.0;;;14.86;57.1
32452;BME280;45528;52.102;5.242;2023-04-24T10:28:11;100206.0;;;14.77;57.61
32452;BME280;45528;52.102;5.242;2023-04-24T10:31:31;100208.0;;;14.9;55.84
32452;BME280;45528;52.102;5.242;2023-04-24T10:33:08;100215.0;;;15.1;54.81
32452;BME280;45528;52.102;5.242;2023-04-24T10:34:44;100215.0;;;15.0;54.84
32452;BME280;45528;52.102;5.242;2023-04-24T10:36:22;100217.0;;;15.54;55.2
32452;BME280;45528;52.102;5.242;2023-04-24T10:39:41;100217.0;;;15.34;54.76
32452;BME280;45528;52.102;5.242;2023-04-24T10:41:17;100218.0;;;15.74;54.84
32452;BME280;45528;52.102;5.242;2023-04-24T10:42:55;100220.0;;;15.71;55.67
32452;BME280;45528;52.102;5.242;2023-04-24T10:44:36;100225.0;;;15.94;53.64
32452;BME280;45528;52.102;5.242;2023-04-24T10:47:58;100226.0;;;15.85;54.37
32452;BME280;45528;52.102;5.242;2023-04-24T10:49:34;100235.0;;;15.99;54.45
32452;BME280;45528;52.102;5.242;2023-04-24T10:51:12;100225.0;;;15.75;55.24
32452;BME280;45528;52.102;5.242;2023-04-24T10:54:27;100230.0;;;15.84;53.84
32452;BME280;45528;52.102;5.242;2023-04-24T10:56:05;100232.0;;;16.04;54.56
32452;BME280;45528;52.102;5.242;2023-04-24T10:58:01;100234.0;;;16.34;54.14
32452;BME280;45528;52.102;5.242;2023-04-24T10:59:38;100235.0;;;16.45;54.89
32452;BME280;45528;52.102;5.242;2023-04-24T11:01:31;100235.0;;;16.46;52.21
32452;BME280;45528;52.102;5.242;2023-04-24T11:05:03;100232.0;;;15.58;53.11
32452;BME280;45528;52.102;5.242;2023-04-24T11:06:40;100236.0;;;15.65;53.52
32452;BME280;45528;52.102;5.242;2023-04-24T11:08:22;100237.0;;;15.44;55.27
32452;BME280;45528;52.102;5.242;2023-04-24T11:10:00;100248.0;;;14.52;57.07
32452;BME280;45528;52.102;5.242;2023-04-24T11:13:15;100255.0;;;14.92;58.82